Terminal Aerodrome Forecast
Issued by NWS

Home | Current Version | Previous Version | Text Only | Print | Product List | Glossary Off
Versions: 1 2 3 4 5 6 7 8 9 10 11 12 13 14 15 16 17

000
FTUS43 KBIS 110600 AAA
TAFJMS
TAF AMD
KJMS 110638Z 1107/1206 18006KT P6SM SKC
      TEMPO 1107/1109 4SM BR
     FM110900 23004KT P6SM VCSH FEW025 SCT050
      TEMPO 1109/1112 2SM BR
     FM111200 33005KT P6SM FEW080
     FM111800 35009KT P6SM SCT120
     FM120100 36007KT P6SM SCT070 BKN110=

USA.gov is the U.S. government's official web portal to all federal, state and local government web resources and services.